KDPG

Details ICAO KDPG
Name Michael AAF (Dougway Proving Grounds)
Region United States
Timezone America/Denver (UTC-7.0)
Plans Departing 2
Arriving 1
Stats Elevation 4,348 ft / 1,325 m (AMSL)
Location 40.199411° -112.937744°
Runways 1
Magnetic Variation 11.695° E
Sunrise 2017-12-13 14:47:18 UTC / 2017-12-13 07:47:18 Local
Sunset 2017-12-14 00:07:44 UTC / 2017-12-13 17:07:44 Local
Advertisement - Login to hide

Runways

ID Width Length Bearing (true) Bearing (mag) Surface Threshold Offset Overrun Length
12L 200 ft / 61 m 13,126 ft / 4,001 m 135.07° 123.37° Asphalt 0 ft / 0 m 650 ft / 198 m
30R 200 ft / 61 m 13,126 ft / 4,001 m 315.10° 303.40° Asphalt 0 ft / 0 m 650 ft / 198 m

Map

Weather


0- 5 10 15 20 25 30 35+ Temperature / ° C

Clouds and Precipitation
Forecast for 2017-12-14 00:00 UTC. Updated 2 hours ago

Ground ~20,000 ft ~40,000 ft Winds

METAR

KDPG 132359Z 30013G19KT 15SM BKN120 BKN160 M04/M08 A3022 RMK SLP271 T10391079 LAST

TAF

Not found

Frequencies

Unicom 126.20 MHz CTAF
Warning: Do not use this data for real-world aviation or navigation. No guarantee of current accuracy is given.